Nearby METAR Reports

 

KSJC - San Jose, California, USA
Distance from station: NE 14km
Updated: 2018-10-17 05:59
Partly cloudy
Partly cloudy
 Wind from calm
Wind: Calm
Temperature: 10°C
Dew Point: 4°C
Humidity: 67%
Barometer: 1019 hPa
Clouds: Partly cloudy
Visibility: 16 km
Cloud details: Few Clouds 91 m
Partly cloudy 213 m
2018/10/17 12:59 KSJC 171259Z 00000KT 10SM FEW003 SCT007 10/04 A3009 RMK AO2 T01000044
KNUQ - Moffett Nas/Mtn, California, USA
Distance from station: N 14km
Updated: 2018-10-17 05:56
Overcast
Overcast
 Wind from calm
Wind: Calm
Temperature: 11°C
Dew Point: 9°C
Humidity: 88%
Barometer: 1019.3 hPa
Clouds: Overcast
Visibility: 16 km
Cloud details: Overcast 213 m
2018/10/17 12:56 KNUQ 171256Z AUTO 00000KT 10SM OVC007 11/09 A3010 RMK AO2 SLP194 T01060089
 
KPAO - Palo Alto, California, USA
Distance from station: NNW 23km
Updated: 2018-10-16 20:47
NOT Current
Clear
Clear
 Wind from calm
Wind: Calm
Temperature: 13°C
Dew Point: 11°C
Humidity: 88%
Barometer: 1018.3 hPa
Clouds: Clear
Visibility: 16 km
2018/10/17 03:47 KPAO 170347Z 00000KT 10SM SKC 13/11 A3007 RMK LAST
KRHV - San Jose/Reid, California, USA
Distance from station: ENE 19km
Updated: 2018-10-16 21:57
NOT Current
Clear
Clear
 Wind from varies
Wind: varies 7 km/h
Temperature: 15°C
Dew Point: 8°C
Humidity: 63%
Barometer: 1017.6 hPa
Clouds: Clear
Visibility: 16 km
2018/10/17 04:57 KRHV 170457Z VRB04KT 10SM SKC 15/08 A3005
 
KOAK - Oakland, California, USA
Distance from station: NNW 50km
Updated: 2018-10-17 05:53
Few Clouds
Few Clouds
 Wind from N
Wind: N 6 km/h
Temperature: 10°C
Dew Point: 9°C
Humidity: 94%
Barometer: 1019 hPa
Clouds: Few Clouds
Visibility: 11 km
Cloud details: Few Clouds 305 m
2018/10/17 12:53 KOAK 171253Z 01003KT 7SM FEW010 10/09 A3009 RMK AO2 SLP190 T01000094
KSQL - San Carlos Airpo, California, USA
Distance from station: NW 34km
Updated: 2018-10-17 06:00
Partly cloudy
Partly cloudy
 Wind from calm
Wind: Calm
Temperature: 11°C
Dew Point: 9°C
Humidity: 88%
Barometer: 1019 hPa
Clouds: Partly cloudy
Visibility: 16 km
Cloud details: Partly cloudy 427 m
2018/10/17 13:00 KSQL 171300Z AUTO 00000KT 10SM SCT014 11/09 A3009 RMK AO2
 
KSFO - San Francisco, California, USA
Distance from station: NW 49km
Updated: 2018-10-17 05:56
Few Clouds
Few Clouds
 Wind from SW
Wind: SW 7 km/h
Temperature: 10°C
Wind Chill: 9°C
Dew Point: 7°C
Humidity: 82%
Barometer: 1018.6 hPa
Clouds: Few Clouds
Visibility: 16 km
Cloud details: Few Clouds 244 m
Few Clouds 457 m
2018/10/17 12:56 KSFO 171256Z 23004KT 10SM FEW008 FEW015 10/07 A3008 RMK AO2 SLP186 T01000067
KE16 - San Martin, California, USA
Distance from station: ESE 43km
Updated: 2018-10-17 05:55
Few Clouds
Few Clouds
 Wind from calm
Wind: Calm
Temperature: 7°C
Dew Point: 3°C
Humidity: 76%
Barometer: 1019.6 hPa
Clouds: Few Clouds
Visibility: 16 km
Cloud details: Few Clouds 1524 m
2018/10/17 12:55 KE16 171255Z AUTO 00000KT 10SM FEW050 07/03 A3011 RMK AO2
 
KWVI - Watsonville, California, USA
Distance from station: SSE 44km
Updated: 2018-10-17 05:57
Mist, Overcast
Mist, Overcast
 Wind from N
Wind: N 6 km/h
Temperature: 7°C
Dew Point: 6°C
Humidity: 93%
Barometer: 1019.3 hPa
Summary: Mist
Clouds: Overcast
Visibility: 1.2 km
Cloud details: Overcast 61 m
2018/10/17 12:57 KWVI 171257Z AUTO 36003KT 3/4SM BR VV002 07/06 A3010 RMK AO2 T00670061
KHAF - Half Moon Bay, California, USA
Distance from station: WNW 50km
Updated: 2018-10-03 13:40
NOT Current
Haze, Mostly cloudy
Haze, Mostly cloudy
 Wind from S
Wind: S 7 km/h
Temperature: 18°C
Dew Point: 15°C
Humidity: 83%
Barometer: 1013.2 hPa
Summary: Haze
Clouds: Mostly cloudy
Visibility: 6 km
Cloud details: Few Clouds 640 m
Mostly cloudy 914 m
2018/10/03 20:40 KHAF 032040Z AUTO 19004KT 4SM HZ FEW021 BKN030 18/15 A2992 RMK AO2
 
KHWD - Hayward, California, USA
Distance from station: N 44km
Updated: 2018-10-17 05:54
Clear
Clear
 Wind from NE
Wind: NE 9 km/h
Temperature: 11°C
Dew Point: 7°C
Humidity: 77%
Barometer: 1019 hPa
Clouds: Clear
Visibility: 16 km
2018/10/17 12:54 KHWD 171254Z AUTO 05005KT 10SM CLR 11/07 A3009 RMK AO2 SLP197 T01060067
KLVK - Livermore, California, USA
Distance from station: NNE 51km
Updated: 2018-10-17 05:53
Clear
Clear
 Wind from calm
Wind: Calm
Temperature: 8°C
Dew Point: 0°C
Humidity: 57%
Barometer: 1018.6 hPa
Clouds: Clear
Visibility: 16 km
2018/10/17 12:53 KLVK 171253Z AUTO 00000KT 10SM CLR 08/00 A3008 RMK AO2 SLP182 T00830000